Iskenderun, Turkey
Current Conditions -  °F | °C
As of 3:50 PM on Thursday 18 Dec 2014 (Local Time) from LTDA Reporting Station
Broken Clouds Broken Clouds  
Wind Chill: 59°   Ceiling: 10000
Heat Index: 59°   Visibility: 6mi
Dew Point: 48°   Wind: 5mph
Humidity: 67%   Direction: 160°SSE
Pressure: 30.12"   Gusts: NA
Location:  36.58°N, 36.17°E
Report Text: LTDA 181250Z 16004KT 9999 SCT035 BKN100 15/09 Q1020
Loading
Personal Weather Stations






























Interactive Weather Map New forecast layout! Learn more

10-Day Weather Forecast

Advertisements
Track Severe Weather on mobile